createdAt,value
2023-03-06T02:27:37.853Z,226.16
2023-03-06T02:28:37.837Z,227.42
2023-03-06T02:29:37.893Z,225.43
2023-03-06T02:30:37.954Z,226.92
2023-03-06T02:31:37.997Z,225.09
2023-03-06T02:55:38.389Z,230.18
2023-03-06T02:56:38.384Z,230.39
2023-03-06T02:57:38.386Z,231.32
2023-03-06T02:58:38.397Z,228.88
2023-03-06T02:59:38.376Z,223.96
2023-03-06T03:00:39.952Z,227.00
2023-03-06T03:01:38.437Z,231.16
2023-03-06T03:02:38.422Z,230.16
2023-03-06T03:03:38.401Z,230.90
2023-03-06T03:04:38.474Z,226.38
2023-03-06T03:05:38.433Z,227.17
2023-03-06T03:06:38.422Z,227.55
2023-03-06T03:07:38.416Z,226.80
2023-03-06T03:08:38.425Z,229.90
2023-03-06T03:09:38.439Z,229.01
2023-03-06T03:10:38.464Z,231.47
2023-03-06T03:11:38.458Z,231.15
2023-03-06T03:12:38.442Z,230.11
2023-03-06T03:13:38.633Z,229.01
2023-03-06T03:14:38.460Z,233.48
2023-03-06T03:15:38.528Z,235.09
2023-03-06T03:16:39.262Z,237.69
2023-03-06T03:17:38.491Z,237.50
2023-03-06T03:18:38.503Z,237.54
2023-03-06T03:19:38.505Z,240.14
2023-03-06T03:20:38.492Z,242.31
2023-03-06T03:21:38.472Z,246.46
2023-03-06T03:22:38.494Z,246.36
2023-03-06T03:23:38.511Z,244.14
2023-03-06T03:24:38.530Z,248.20
2023-03-06T03:25:38.509Z,245.73
2023-03-06T03:26:38.508Z,246.96
2023-03-06T03:27:38.543Z,249.95
2023-03-06T03:28:38.546Z,247.88
2023-03-06T03:29:38.569Z,245.99
2023-03-06T03:30:38.552Z,247.50
2023-03-06T03:31:38.599Z,250.00
2023-03-06T03:32:38.574Z,250.00
2023-03-06T03:33:38.636Z,247.65
2023-03-06T03:34:38.581Z,246.66
2023-03-06T03:35:38.609Z,246.43
2023-03-06T03:36:38.595Z,247.44
2023-03-06T03:37:38.611Z,249.76
2023-03-06T03:38:38.643Z,249.05
2023-03-06T03:39:38.667Z,245.54
2023-03-06T03:40:38.734Z,249.95
2023-03-06T03:41:38.785Z,242.28
2023-03-06T03:42:38.869Z,245.35
2023-03-06T03:43:38.923Z,245.86
2023-03-06T03:44:38.968Z,246.33
2023-03-06T03:45:39.048Z,244.55
2023-03-06T03:46:39.100Z,245.63
2023-03-06T03:47:39.145Z,244.49
2023-03-06T03:48:39.153Z,245.40
2023-03-06T03:49:39.187Z,246.10
2023-03-06T03:50:39.172Z,246.19
2023-03-06T03:51:39.204Z,246.81
2023-03-06T03:52:39.148Z,247.89
2023-03-06T03:53:39.172Z,249.68
2023-03-06T03:54:39.165Z,246.50
2023-03-06T03:55:39.181Z,247.58
2023-03-06T03:56:39.197Z,248.18
2023-03-06T03:57:39.160Z,245.61
2023-03-06T03:58:39.180Z,246.82
2023-03-06T03:59:39.194Z,242.86
2023-03-06T04:00:39.177Z,245.43
2023-03-06T04:01:39.857Z,246.93
2023-03-06T04:02:39.261Z,245.38
2023-03-06T04:03:39.319Z,245.12
2023-03-06T04:04:39.402Z,247.55
2023-03-06T04:05:39.443Z,247.04
2023-03-06T04:06:39.473Z,248.13
2023-03-06T04:07:39.533Z,245.28
2023-03-06T04:08:39.614Z,247.43
2023-03-06T04:09:39.597Z,244.36
2023-03-06T04:10:39.659Z,246.63
2023-03-06T04:11:39.664Z,245.35
2023-03-06T04:12:39.705Z,246.45
2023-03-06T04:13:39.718Z,242.43
2023-03-06T04:14:39.732Z,242.35
2023-03-06T04:15:39.770Z,242.51
2023-03-06T04:16:39.811Z,242.44
2023-03-06T04:17:39.852Z,241.24
2023-03-06T04:18:39.878Z,243.67
2023-03-06T04:19:39.938Z,241.75
2023-03-06T04:20:39.947Z,242.70
2023-03-06T04:21:39.966Z,239.76
2023-03-06T04:22:40.022Z,242.54
2023-03-06T04:23:40.023Z,242.14
2023-03-06T04:24:40.066Z,241.23
2023-03-06T04:25:40.115Z,239.84
2023-03-06T04:26:40.142Z,239.30
2023-03-06T04:27:40.202Z,241.05
2023-03-06T04:28:40.198Z,243.32
2023-03-06T04:29:40.239Z,240.97
2023-03-06T04:30:40.277Z,242.49
2023-03-06T04:31:40.328Z,239.20
2023-03-06T04:32:40.418Z,240.89
2023-03-06T04:33:40.372Z,241.54
2023-03-06T04:34:40.380Z,237.53
2023-03-06T04:35:40.544Z,239.18
2023-03-06T04:36:40.477Z,240.10
2023-03-06T04:37:40.539Z,236.92
2023-03-06T04:38:40.631Z,236.47
2023-03-06T04:39:40.619Z,236.16
2023-03-06T04:40:40.617Z,235.12
2023-03-06T04:41:40.662Z,236.58
2023-03-06T04:42:40.695Z,233.18
2023-03-06T04:43:40.797Z,235.26
2023-03-06T04:44:40.801Z,232.81
2023-03-06T04:45:40.855Z,234.39
2023-03-06T04:46:40.867Z,234.41
2023-03-06T04:47:40.869Z,234.70
2023-03-06T04:48:40.902Z,236.99
2023-03-06T04:49:40.886Z,236.84
2023-03-06T04:50:40.874Z,237.40
2023-03-06T04:51:40.953Z,242.21
2023-03-06T04:52:40.960Z,242.65
2023-03-06T04:53:40.965Z,241.67
2023-03-06T04:54:40.977Z,238.57
2023-03-06T04:55:40.966Z,241.78
2023-03-06T04:56:40.998Z,240.90
2023-03-06T04:57:40.971Z,241.85
2023-03-06T04:58:40.980Z,239.79
2023-03-06T04:59:40.997Z,238.75
2023-03-06T05:00:41.020Z,240.01
2023-03-06T05:01:41.019Z,242.57
2023-03-06T05:02:40.984Z,240.98
2023-03-06T05:03:40.993Z,241.74
2023-03-06T05:04:40.973Z,239.60
2023-03-06T05:05:41.003Z,240.18
2023-03-06T05:06:41.000Z,239.31
2023-03-06T05:07:40.974Z,241.38
2023-03-06T05:08:41.008Z,239.61
2023-03-06T05:09:40.999Z,244.56
2023-03-06T05:10:41.004Z,241.57
2023-03-06T05:11:41.003Z,240.79
2023-03-06T05:12:40.993Z,238.90
2023-03-06T05:13:41.036Z,242.25
2023-03-06T05:14:41.029Z,240.38
2023-03-06T05:15:41.008Z,239.60
2023-03-06T05:16:41.083Z,241.07
2023-03-06T05:17:41.024Z,242.08
2023-03-06T05:18:41.060Z,240.64
2023-03-06T05:19:41.070Z,242.74
2023-03-06T05:20:41.076Z,240.65
2023-03-06T05:21:41.024Z,239.95
2023-03-06T05:22:41.061Z,242.52
2023-03-06T05:23:41.056Z,243.91
2023-03-06T05:24:41.073Z,244.50
2023-03-06T05:25:41.089Z,239.86
2023-03-06T05:26:41.068Z,243.11
2023-03-06T05:27:41.069Z,237.21
2023-03-06T05:28:41.082Z,237.64
2023-03-06T05:29:41.088Z,242.23
2023-03-06T05:30:41.098Z,240.45
2023-03-06T05:31:41.195Z,240.93
2023-03-06T05:32:41.251Z,242.27
2023-03-06T05:33:41.273Z,240.69
2023-03-06T05:34:41.342Z,239.86
2023-03-06T05:35:41.449Z,242.66
2023-03-06T05:36:41.453Z,238.31
2023-03-06T05:37:41.492Z,242.60
2023-03-06T05:38:41.505Z,241.86
2023-03-06T05:39:41.508Z,242.41
2023-03-06T05:40:41.529Z,242.99
2023-03-06T05:41:41.507Z,242.81
2023-03-06T05:42:41.514Z,244.45
2023-03-06T05:43:41.515Z,240.16
2023-03-06T05:44:41.556Z,237.96
2023-03-06T05:45:41.594Z,244.23
2023-03-06T05:46:41.527Z,242.53
2023-03-06T05:47:41.526Z,240.28
2023-03-06T05:48:41.528Z,245.29
2023-03-06T05:49:41.545Z,241.43
2023-03-06T05:50:41.515Z,244.72
2023-03-06T05:51:41.508Z,246.80
2023-03-06T05:52:41.536Z,241.18
2023-03-06T05:53:41.517Z,245.22
2023-03-06T05:54:41.556Z,244.58
2023-03-06T05:55:41.555Z,245.86
2023-03-06T05:56:42.909Z,244.50
2023-03-06T05:57:41.585Z,245.00
2023-03-06T05:58:41.657Z,248.15
2023-03-06T05:59:42.690Z,245.43
2023-03-06T06:00:41.786Z,247.54
2023-03-06T06:01:48.816Z,246.07
2023-03-06T06:02:41.870Z,246.47
2023-03-06T06:03:41.823Z,246.72
2023-03-06T06:04:41.812Z,247.56
2023-03-06T06:05:41.770Z,247.74
2023-03-06T06:06:41.784Z,249.95
2023-03-06T06:07:41.790Z,247.41
2023-03-06T06:08:41.829Z,245.30
2023-03-06T06:09:41.854Z,246.21
2023-03-06T06:10:41.755Z,247.00
2023-03-06T06:11:41.747Z,245.51
2023-03-06T06:12:41.804Z,246.24
2023-03-06T06:13:41.780Z,246.02
2023-03-06T06:14:41.748Z,246.06
2023-03-06T06:15:41.791Z,247.98
2023-03-06T06:16:41.711Z,246.48
2023-03-06T06:17:41.715Z,244.77
2023-03-06T06:18:41.700Z,245.10
2023-03-06T06:19:41.688Z,247.59
2023-03-06T06:20:41.726Z,247.62
2023-03-06T06:21:41.680Z,246.65
2023-03-06T06:22:41.695Z,249.74
2023-03-06T06:23:41.661Z,246.49
2023-03-06T06:24:41.649Z,245.18
2023-03-06T06:25:41.624Z,243.48
2023-03-06T06:26:41.665Z,244.78
2023-03-06T06:27:41.652Z,249.37
2023-03-06T06:28:41.617Z,244.54
2023-03-06T06:29:41.623Z,245.56
2023-03-06T06:30:42.037Z,243.55
2023-03-06T06:31:41.640Z,250.00
2023-03-06T06:32:41.696Z,246.77
2023-03-06T06:33:41.655Z,248.16
2023-03-06T06:35:41.614Z,244.52
2023-03-06T06:36:41.812Z,244.27
2023-03-06T06:37:41.584Z,250.00
2023-03-06T06:38:41.548Z,247.70
2023-03-06T06:39:41.571Z,250.00
2023-03-06T06:40:41.560Z,249.14
2023-03-06T06:42:02.257Z,248.17
2023-03-06T06:42:42.543Z,248.37
2023-03-06T06:43:41.536Z,250.85
2023-03-06T06:44:41.512Z,263.52
2023-03-06T06:45:41.527Z,276.00
2023-03-06T06:47:42.532Z,250.23
2023-03-06T06:48:41.679Z,258.21
2023-03-06T06:49:41.533Z,279.62
2023-03-06T06:50:41.576Z,310.39
2023-03-06T06:51:41.511Z,362.32
2023-03-06T06:52:41.474Z,345.68
2023-03-06T06:53:41.496Z,325.14
2023-03-06T06:54:41.477Z,303.49
2023-03-06T06:55:41.477Z,288.38
2023-03-06T06:56:41.451Z,277.34
2023-03-06T06:57:41.436Z,258.54
2023-03-06T06:58:41.426Z,249.73
2023-03-06T06:59:41.489Z,250.00
2023-03-06T07:00:41.417Z,248.54
2023-03-06T07:01:41.446Z,250.00
2023-03-06T07:02:41.423Z,250.23
2023-03-06T07:03:41.443Z,249.05
2023-03-06T07:04:56.193Z,250.00
2023-03-06T07:05:42.400Z,250.10
2023-03-06T07:06:41.401Z,250.12
2023-03-06T07:07:41.375Z,250.89
2023-03-06T07:08:41.366Z,254.72
2023-03-06T07:09:41.476Z,256.20
2023-03-06T07:10:41.382Z,250.00
2023-03-06T07:11:41.855Z,248.83
2023-03-06T07:12:41.361Z,249.50
2023-03-06T07:13:41.322Z,249.21
2023-03-06T07:14:41.374Z,249.82
2023-03-06T07:15:41.374Z,249.41
2023-03-06T07:16:41.324Z,250.00
2023-03-06T07:17:41.322Z,249.57
2023-03-06T07:18:41.292Z,249.96
2023-03-06T07:19:41.359Z,248.47
2023-03-06T07:20:41.304Z,250.01
2023-03-06T07:21:41.390Z,248.66
2023-03-06T07:22:50.845Z,250.00
2023-03-06T07:23:42.347Z,250.21
2023-03-06T07:24:41.365Z,251.36
2023-03-06T07:25:41.321Z,252.86
2023-03-06T07:26:41.336Z,256.35
2023-03-06T07:27:41.361Z,261.07
2023-03-06T07:28:51.956Z,252.85
2023-03-06T07:29:42.292Z,253.25
2023-03-06T07:30:41.301Z,254.36
2023-03-06T07:31:41.362Z,255.97
2023-03-06T07:32:41.328Z,259.64
2023-03-06T07:33:41.284Z,260.22
2023-03-06T07:34:41.286Z,249.35
2023-03-06T07:35:41.345Z,249.70
2023-03-06T07:36:41.355Z,248.10
2023-03-06T07:37:41.309Z,245.40
2023-03-06T07:38:41.299Z,244.58
2023-03-06T07:39:41.280Z,244.47
2023-03-06T07:40:41.321Z,243.27
2023-03-06T07:41:41.868Z,241.00
2023-03-06T07:42:41.254Z,239.56
2023-03-06T07:43:41.313Z,239.51
2023-03-06T07:44:41.233Z,239.73
2023-03-06T07:45:41.211Z,241.31
2023-03-06T07:46:41.534Z,241.45
2023-03-06T07:47:41.309Z,241.90
2023-03-06T07:48:41.374Z,244.33
2023-03-06T07:49:41.485Z,247.49
2023-03-06T07:50:41.463Z,249.49
2023-03-06T07:53:41.579Z,247.78
2023-03-06T07:54:41.631Z,250.00
2023-03-06T07:55:42.044Z,247.13
2023-03-06T07:56:41.945Z,241.25
2023-03-06T07:58:41.718Z,237.12
2023-03-06T07:59:41.808Z,234.18
2023-03-06T08:00:41.839Z,236.21
2023-03-06T08:01:41.908Z,241.56
2023-03-06T08:02:41.941Z,233.36
2023-03-06T08:03:41.832Z,229.30
2023-03-06T08:04:41.862Z,229.52
2023-03-06T08:05:41.860Z,229.85
2023-03-06T08:06:41.875Z,226.31
2023-03-06T08:36:42.613Z,95.37
2023-03-06T09:41:44.947Z,157.21
2023-03-06T11:18:49.017Z,212.99
2023-03-06T11:38:48.788Z,228.61
2023-03-06T11:39:48.962Z,225.92
2023-03-06T11:40:48.799Z,219.45
2023-03-06T11:41:48.797Z,216.86
2023-03-06T11:42:48.825Z,213.75
2023-03-06T11:43:48.838Z,210.58
2023-03-06T11:44:48.970Z,208.88
2023-03-06T11:45:48.989Z,207.97
2023-03-06T11:46:48.998Z,205.64
2023-03-06T11:47:49.040Z,203.80
2023-03-06T11:48:49.055Z,201.55
2023-03-06T11:49:49.455Z,199.43
2023-03-06T11:50:49.120Z,196.81
2023-03-06T11:51:49.170Z,196.07
2023-03-06T11:52:49.248Z,195.51
2023-03-06T11:53:49.256Z,193.64
2023-03-06T11:54:49.483Z,191.69
2023-03-06T11:55:49.369Z,190.29
2023-03-06T11:56:49.372Z,189.57
2023-03-06T11:57:49.421Z,188.43
2023-03-06T11:58:49.486Z,186.73
2023-03-06T11:59:49.549Z,182.77
2023-03-06T12:00:49.602Z,181.18
2023-03-06T12:01:49.670Z,178.64
2023-03-06T12:02:49.717Z,178.85
2023-03-06T12:03:49.781Z,177.52
2023-03-06T12:04:49.998Z,176.56
2023-03-06T12:05:49.996Z,174.42
2023-03-06T12:06:49.973Z,172.96
2023-03-06T12:07:50.078Z,171.52
2023-03-06T12:08:50.075Z,169.77
2023-03-06T12:09:50.111Z,168.06
2023-03-06T12:10:51.866Z,166.69
2023-03-06T12:11:50.317Z,165.60
2023-03-06T12:12:50.650Z,164.07
2023-03-06T12:14:50.477Z,161.51
2023-03-06T12:15:50.533Z,161.47
2023-03-06T12:16:50.529Z,160.10
2023-03-06T12:17:50.561Z,159.03
2023-03-06T12:18:50.557Z,158.85
2023-03-06T12:19:50.991Z,157.14
2023-03-06T12:20:50.971Z,156.44
2023-03-06T12:21:50.671Z,156.23
2023-03-06T12:22:57.616Z,154.44
2023-03-06T12:23:51.769Z,154.53
2023-03-06T12:24:50.732Z,154.44
2023-03-06T12:25:51.011Z,153.24
2023-03-06T12:26:50.715Z,150.15
2023-03-06T12:27:50.709Z,149.60
2023-03-06T12:28:50.720Z,147.95
2023-03-06T12:29:50.792Z,147.88
2023-03-06T12:30:51.053Z,144.76
2023-03-06T12:31:50.764Z,146.58
2023-03-06T12:32:50.729Z,143.11
2023-03-06T12:33:50.696Z,139.06
2023-03-06T12:34:50.674Z,140.48
2023-03-06T12:35:51.020Z,141.69
2023-03-06T12:36:50.672Z,138.96
2023-03-06T12:37:50.804Z,136.99
2023-03-06T12:38:50.637Z,130.63
2023-03-06T12:39:50.634Z,123.03
2023-03-06T12:40:50.642Z,126.29
2023-03-06T12:41:50.656Z,116.41
2023-03-06T12:42:50.662Z,113.11
2023-03-06T12:43:50.682Z,111.70
2023-03-06T12:44:50.743Z,113.67
2023-03-06T12:45:50.791Z,115.95
2023-03-06T12:46:50.749Z,109.94
2023-03-06T12:47:50.790Z,110.20
2023-03-06T12:48:50.814Z,106.84
2023-03-06T12:49:50.839Z,106.60
2023-03-06T12:50:50.879Z,107.17
2023-03-06T12:51:50.899Z,108.24
2023-03-06T12:52:50.907Z,105.90
2023-03-06T12:53:50.919Z,103.07
2023-03-06T12:54:50.953Z,103.13
2023-03-06T12:55:50.957Z,105.94
2023-03-06T12:56:50.970Z,104.78
2023-03-06T12:57:50.984Z,104.79
2023-03-06T12:58:51.052Z,103.65
2023-03-06T12:59:51.034Z,103.77
2023-03-06T13:00:55.281Z,105.41
2023-03-06T13:01:52.134Z,105.45
2023-03-06T13:02:51.094Z,105.41
2023-03-06T13:03:51.013Z,102.42
2023-03-06T13:04:51.046Z,104.01
2023-03-06T13:05:51.087Z,102.03
2023-03-06T13:06:51.616Z,102.83
2023-03-06T13:07:51.113Z,109.65
2023-03-06T13:08:51.137Z,179.84
2023-03-06T13:09:51.148Z,232.72
2023-03-06T13:10:51.167Z,206.11
2023-03-06T13:11:51.170Z,217.47
2023-03-06T13:12:51.271Z,217.96
2023-03-06T13:13:51.236Z,218.96
2023-03-06T13:14:54.565Z,200.08
2023-03-06T13:15:51.261Z,198.53
2023-03-06T13:16:51.264Z,200.96
2023-03-06T13:17:51.272Z,197.87
2023-03-06T13:18:51.237Z,196.43
2023-03-06T13:19:51.272Z,193.65
2023-03-06T13:20:51.227Z,190.02
2023-03-06T13:21:51.234Z,187.84
2023-03-06T13:22:51.238Z,188.16
2023-03-06T13:23:51.245Z,188.21
2023-03-06T13:24:54.926Z,185.60
2023-03-06T13:25:51.244Z,185.63
2023-03-06T13:26:51.218Z,184.13
2023-03-06T13:27:51.197Z,181.99
2023-03-06T13:28:51.168Z,180.01
2023-03-06T13:29:51.173Z,179.00
2023-03-06T13:30:53.021Z,178.83
2023-03-06T15:48:18.837Z,215.88
2023-03-06T15:50:18.799Z,218.12
2023-03-06T15:51:18.840Z,224.64
2023-03-06T15:52:18.823Z,223.84
2023-03-06T15:53:18.812Z,224.91
2023-03-06T15:54:18.841Z,227.05
2023-03-06T15:55:18.875Z,229.14
2023-03-06T15:56:19.003Z,233.53
2023-03-06T15:57:19.107Z,234.53
2023-03-06T15:58:19.197Z,234.23
2023-03-06T15:59:19.234Z,235.19
2023-03-06T16:00:27.390Z,236.13
2023-03-06T16:01:20.370Z,236.27
2023-03-06T16:02:19.337Z,237.33
2023-03-06T16:03:19.314Z,237.89
2023-03-06T16:04:19.377Z,239.75
2023-03-06T16:05:19.329Z,241.15
2023-03-06T16:06:19.313Z,241.37
2023-03-06T16:07:19.339Z,241.40
2023-03-06T16:08:19.304Z,241.92
2023-03-06T16:09:19.290Z,244.64
2023-03-06T16:10:19.322Z,246.32
2023-03-06T16:11:19.265Z,245.32
2023-03-06T16:12:19.336Z,249.84
2023-03-06T16:13:19.385Z,249.77
2023-03-06T16:14:19.421Z,245.86
2023-03-06T16:15:19.450Z,228.31
2023-03-06T16:16:19.538Z,203.03
2023-03-06T16:17:19.469Z,161.63
2023-03-06T16:18:19.519Z,106.04
2023-03-06T16:19:25.969Z,87.57
2023-03-06T16:20:20.563Z,76.64
2023-03-06T16:21:19.548Z,63.86
2023-03-06T16:22:19.530Z,62.56
2023-03-06T16:23:19.556Z,51.08
2023-03-06T16:24:19.516Z,46.19
2023-03-06T16:25:19.523Z,39.30
2023-03-06T16:26:19.508Z,24.94
2023-03-06T16:27:19.552Z,23.78
2023-03-06T16:28:19.523Z,31.64
2023-03-06T16:29:19.528Z,23.97
2023-03-06T16:30:19.498Z,29.19
2023-03-06T16:31:19.475Z,25.00
2023-03-06T16:32:19.585Z,16.98
2023-03-06T16:33:19.542Z,5.13
2023-03-06T16:34:19.761Z,15.95
2023-03-06T16:35:19.678Z,34.07
2023-03-06T16:36:19.642Z,41.79
2023-03-06T16:37:19.638Z,20.47
2023-03-06T16:38:19.663Z,20.13
2023-03-06T16:39:19.652Z,38.61
2023-03-06T16:40:19.710Z,69.10
2023-03-06T16:41:19.716Z,86.83
2023-03-06T16:42:19.749Z,90.47
2023-03-06T16:43:19.788Z,101.79
2023-03-06T16:44:19.847Z,111.69
2023-03-06T16:45:19.832Z,119.13
2023-03-06T16:46:19.898Z,129.96
2023-03-06T16:47:19.912Z,137.24
2023-03-06T16:48:19.999Z,148.50
2023-03-06T16:49:20.022Z,165.40
2023-03-06T16:50:19.976Z,176.03
2023-03-06T16:51:19.999Z,177.23
2023-03-06T16:52:20.044Z,181.01
2023-03-06T16:53:20.115Z,194.85
2023-03-06T16:54:20.184Z,196.69
2023-03-06T16:55:20.173Z,198.93
2023-03-06T16:56:20.205Z,199.14
2023-03-06T16:57:20.251Z,203.54
2023-03-06T16:58:20.285Z,203.79
2023-03-06T16:59:20.277Z,205.90
2023-03-06T17:00:20.313Z,205.81
2023-03-06T17:01:20.356Z,201.55
2023-03-06T17:02:20.377Z,197.69
2023-03-06T17:03:20.367Z,196.62
2023-03-06T17:04:20.378Z,190.97
2023-03-06T17:05:20.388Z,186.34
2023-03-06T17:06:20.409Z,186.75
2023-03-06T17:07:20.439Z,187.87
2023-03-06T17:08:20.489Z,184.92
2023-03-06T17:09:20.496Z,185.37
2023-03-06T17:10:20.519Z,187.86
2023-03-06T17:11:20.560Z,186.35
2023-03-06T17:12:20.544Z,182.45
2023-03-06T17:13:20.599Z,186.24
2023-03-06T17:14:20.625Z,183.21
2023-03-06T17:15:20.610Z,181.18
2023-03-06T17:16:20.757Z,184.68
2023-03-06T17:17:20.709Z,184.55
2023-03-06T17:18:20.690Z,181.03
2023-03-06T17:19:20.717Z,182.15
2023-03-06T17:20:20.750Z,182.37
2023-03-06T17:21:20.818Z,183.53
2023-03-06T17:22:20.813Z,181.88
2023-03-06T17:23:20.874Z,182.94
2023-03-06T17:24:20.893Z,179.67
2023-03-06T17:25:20.922Z,180.58
2023-03-06T17:26:20.926Z,179.76
2023-03-06T17:27:20.959Z,180.14
2023-03-06T17:28:20.979Z,179.10
2023-03-06T17:29:21.031Z,181.72
2023-03-06T17:30:21.065Z,179.81
2023-03-06T17:31:21.115Z,179.93
2023-03-06T17:32:21.148Z,178.41
2023-03-06T17:33:21.735Z,178.27
2023-03-06T17:34:23.082Z,177.68
2023-03-06T17:35:21.172Z,178.47
2023-03-06T17:36:21.169Z,177.40
2023-03-06T17:37:21.200Z,176.61
2023-03-06T17:38:21.129Z,174.49
2023-03-06T17:39:21.111Z,171.91
2023-03-06T17:40:21.123Z,176.30
2023-03-06T17:41:21.146Z,171.70
2023-03-06T17:42:21.115Z,169.91
2023-03-06T17:43:21.106Z,171.84
2023-03-06T17:44:21.099Z,171.35
2023-03-06T17:45:21.077Z,170.48
2023-03-06T17:46:21.120Z,169.57
2023-03-06T17:47:21.078Z,169.41
2023-03-06T17:48:21.093Z,168.76
2023-03-06T17:49:21.068Z,167.15
2023-03-06T17:50:21.058Z,168.98
2023-03-06T17:51:21.055Z,167.32
2023-03-06T17:52:21.025Z,169.56
2023-03-06T17:53:21.031Z,165.96
2023-03-06T17:54:21.083Z,165.84
2023-03-06T17:55:21.047Z,164.88
2023-03-06T17:56:21.039Z,166.91
2023-03-06T17:57:21.029Z,166.24
2023-03-06T17:58:21.023Z,166.12
2023-03-06T17:59:20.995Z,167.24
2023-03-06T18:00:20.971Z,163.67
2023-03-06T18:01:20.994Z,164.43
2023-03-06T18:02:20.992Z,164.11
2023-03-06T18:03:21.107Z,165.04
2023-03-06T18:04:20.964Z,167.35
2023-03-06T18:05:20.971Z,165.31
2023-03-06T18:06:20.994Z,166.79
2023-03-06T18:07:20.967Z,166.59
2023-03-06T18:08:20.942Z,168.27
2023-03-06T18:09:20.930Z,166.00
2023-03-06T18:10:20.936Z,165.49
2023-03-06T18:11:20.922Z,164.31
2023-03-06T18:12:21.073Z,165.04
2023-03-06T18:13:20.898Z,164.79
2023-03-06T18:14:20.906Z,164.98
2023-03-06T18:15:20.900Z,166.64
2023-03-06T18:16:21.019Z,165.90
2023-03-06T18:17:20.885Z,165.95
2023-03-06T18:18:20.886Z,165.51
2023-03-06T18:19:20.880Z,165.22
2023-03-06T18:20:20.878Z,163.94
2023-03-06T18:21:20.885Z,164.67
2023-03-06T18:22:20.836Z,162.62
2023-03-06T18:23:20.843Z,163.23
2023-03-06T18:24:20.850Z,163.74
2023-03-06T18:25:20.837Z,164.02
2023-03-06T18:26:20.839Z,162.98
2023-03-06T18:27:20.837Z,162.22
2023-03-06T18:28:20.819Z,161.97
2023-03-06T18:29:20.816Z,162.81
2023-03-06T18:30:20.830Z,163.36
2023-03-06T18:31:20.926Z,163.89
2023-03-06T18:32:20.962Z,162.72
2023-03-06T18:33:20.973Z,163.34
2023-03-06T18:34:21.011Z,160.26
2023-03-06T18:35:21.103Z,159.87
2023-03-06T18:36:21.117Z,162.27
2023-03-06T18:37:21.124Z,160.32
2023-03-06T18:38:21.190Z,161.08
2023-03-06T18:39:21.229Z,161.08
2023-03-06T18:40:22.908Z,161.03
2023-03-06T18:41:21.265Z,161.73
2023-03-06T18:42:21.227Z,161.27
2023-03-06T18:43:21.216Z,161.21
2023-03-06T18:44:21.221Z,160.18
2023-03-06T18:45:21.235Z,160.22
2023-03-06T18:46:21.197Z,159.81
2023-03-06T18:47:21.177Z,159.51
2023-03-06T18:48:21.166Z,159.82
2023-03-06T18:49:21.245Z,158.83
2023-03-06T18:50:21.174Z,158.28
2023-03-06T18:51:21.189Z,157.26
2023-03-06T18:52:21.176Z,157.39
2023-03-06T18:53:21.175Z,157.12
2023-03-06T18:54:21.190Z,158.89
2023-03-06T18:55:21.366Z,158.05
2023-03-06T18:56:21.179Z,156.81
2023-03-06T18:57:21.131Z,156.56
2023-03-06T18:58:21.110Z,155.82
2023-03-06T18:59:21.123Z,155.82
2023-03-06T19:00:21.124Z,156.15
2023-03-06T19:01:21.172Z,156.94
2023-03-06T19:02:21.110Z,157.22
2023-03-06T19:03:21.084Z,154.98
2023-03-06T19:04:21.111Z,156.94
2023-03-06T19:05:21.092Z,155.01
2023-03-06T19:06:21.084Z,155.11
2023-03-06T19:07:21.072Z,154.28
2023-03-06T19:08:21.072Z,153.63
2023-03-06T19:09:21.053Z,153.46
2023-03-06T19:10:21.068Z,153.25
2023-03-06T19:11:21.085Z,152.40
2023-03-06T19:12:21.065Z,153.07
2023-03-06T19:13:21.040Z,150.04
2023-03-06T19:14:21.023Z,150.75
2023-03-06T19:15:21.020Z,151.02
2023-03-06T19:16:21.042Z,149.49
2023-03-06T19:17:21.024Z,147.39
2023-03-06T19:18:21.030Z,148.49
2023-03-06T19:19:21.001Z,147.72
2023-03-06T19:20:20.994Z,148.68
2023-03-06T19:21:21.018Z,148.95
2023-03-06T19:22:20.992Z,148.10
2023-03-06T19:23:20.990Z,148.02
2023-03-06T19:24:20.984Z,148.19
2023-03-06T19:25:21.051Z,148.05
2023-03-06T19:26:21.153Z,148.19
2023-03-06T19:27:21.145Z,148.51
2023-03-06T19:28:21.197Z,149.53
2023-03-06T19:29:21.258Z,149.73
2023-03-06T19:30:21.297Z,147.53
2023-03-06T19:31:21.380Z,147.99
2023-03-06T19:32:21.405Z,149.38
2023-03-06T19:33:21.385Z,146.63
2023-03-06T19:34:21.419Z,147.76
2023-03-06T19:35:21.441Z,147.24
2023-03-06T19:36:21.470Z,145.05
2023-03-06T19:37:21.477Z,145.56
2023-03-06T19:38:21.488Z,147.26
2023-03-06T19:39:21.544Z,147.97
2023-03-06T19:40:21.545Z,148.36
2023-03-06T19:41:21.559Z,151.09
2023-03-06T19:42:21.586Z,149.29
2023-03-06T19:43:21.611Z,148.36
2023-03-06T19:44:21.601Z,148.96
2023-03-06T19:45:21.638Z,147.92
2023-03-06T19:46:21.732Z,149.08
2023-03-06T19:47:21.699Z,149.41
2023-03-06T19:48:22.804Z,149.33
2023-03-06T19:49:21.772Z,148.34
2023-03-06T19:50:21.851Z,150.17
2023-03-06T19:51:21.906Z,148.27
2023-03-06T19:52:21.916Z,148.59
2023-03-06T21:59:28.835Z,144.86
2023-03-06T22:00:28.840Z,145.31
2023-03-06T22:01:29.088Z,146.64
